sensor_id;sensor_type;location;lat;lon;timestamp;temperature;humidity
32965;DHT22;19317;48.226;11.686;2023-07-29T00:01:33;18.10;99.90
32965;DHT22;19317;48.226;11.686;2023-07-29T00:06:23;18.00;99.90
32965;DHT22;19317;48.226;11.686;2023-07-29T00:11:14;18.30;99.90
32965;DHT22;19317;48.226;11.686;2023-07-29T00:16:04;18.20;99.90
32965;DHT22;19317;48.226;11.686;2023-07-29T00:20:55;18.40;99.90
32965;DHT22;19317;48.226;11.686;2023-07-29T00:25:45;18.40;99.90
32965;DHT22;19317;48.226;11.686;2023-07-29T00:30:36;18.60;99.90
32965;DHT22;19317;48.226;11.686;2023-07-29T00:35:26;18.50;99.90
32965;DHT22;19317;48.226;11.686;2023-07-29T00:40:21;18.50;99.90
32965;DHT22;19317;48.226;11.686;2023-07-29T00:45:12;18.40;99.90
32965;DHT22;19317;48.226;11.686;2023-07-29T00:50:03;18.40;99.90
32965;DHT22;19317;48.226;11.686;2023-07-29T00:54:54;18.40;99.90
32965;DHT22;19317;48.226;11.686;2023-07-29T00:59:44;18.40;99.90
32965;DHT22;19317;48.226;11.686;2023-07-29T01:04:35;18.40;99.90
32965;DHT22;19317;48.226;11.686;2023-07-29T01:14:44;18.40;99.90
32965;DHT22;19317;48.226;11.686;2023-07-29T01:24:44;17.90;99.90
32965;DHT22;19317;48.226;11.686;2023-07-29T01:29:35;18.00;99.90
32965;DHT22;19317;48.226;11.686;2023-07-29T01:34:35;18.00;99.90
32965;DHT22;19317;48.226;11.686;2023-07-29T01:39:29;18.00;99.90
32965;DHT22;19317;48.226;11.686;2023-07-29T01:44:22;18.00;99.90
32965;DHT22;19317;48.226;11.686;2023-07-29T01:49:13;17.80;99.90
32965;DHT22;19317;48.226;11.686;2023-07-29T01:54:03;17.50;99.90
32965;DHT22;19317;48.226;11.686;2023-07-29T01:58:54;17.40;99.90
32965;DHT22;19317;48.226;11.686;2023-07-29T02:03:44;17.40;99.90
32965;DHT22;19317;48.226;11.686;2023-07-29T02:08:35;17.70;99.90
32965;DHT22;19317;48.226;11.686;2023-07-29T02:13:25;17.60;99.90
32965;DHT22;19317;48.226;11.686;2023-07-29T02:18:16;17.60;99.90
32965;DHT22;19317;48.226;11.686;2023-07-29T02:23:06;17.60;99.90
32965;DHT22;19317;48.226;11.686;2023-07-29T02:27:56;17.50;99.90
32965;DHT22;19317;48.226;11.686;2023-07-29T02:32:47;17.60;99.90
32965;DHT22;19317;48.226;11.686;2023-07-29T02:37:37;17.70;99.90
32965;DHT22;19317;48.226;11.686;2023-07-29T02:42:28;17.40;99.90
32965;DHT22;19317;48.226;11.686;2023-07-29T02:47:18;17.20;99.90
32965;DHT22;19317;48.226;11.686;2023-07-29T02:52:09;17.00;99.90
32965;DHT22;19317;48.226;11.686;2023-07-29T02:56:59;17.00;99.90
32965;DHT22;19317;48.226;11.686;2023-07-29T03:01:49;16.80;99.90
32965;DHT22;19317;48.226;11.686;2023-07-29T03:06:40;16.70;99.90
32965;DHT22;19317;48.226;11.686;2023-07-29T03:11:30;16.80;99.90
32965;DHT22;19317;48.226;11.686;2023-07-29T03:16:21;16.80;99.90
32965;DHT22;19317;48.226;11.686;2023-07-29T03:21:11;17.00;99.90
32965;DHT22;19317;48.226;11.686;2023-07-29T03:26:03;17.10;99.90
32965;DHT22;19317;48.226;11.686;2023-07-29T03:30:54;17.10;99.90
32965;DHT22;19317;48.226;11.686;2023-07-29T03:35:45;16.90;99.90
32965;DHT22;19317;48.226;11.686;2023-07-29T03:40:35;16.80;99.90
32965;DHT22;19317;48.226;11.686;2023-07-29T03:45:26;16.90;99.90
32965;DHT22;19317;48.226;11.686;2023-07-29T03:50:16;16.90;99.90
32965;DHT22;19317;48.226;11.686;2023-07-29T03:55:07;16.60;99.90
32965;DHT22;19317;48.226;11.686;2023-07-29T03:59:57;16.60;99.90
32965;DHT22;19317;48.226;11.686;2023-07-29T04:04:48;16.60;99.90
32965;DHT22;19317;48.226;11.686;2023-07-29T04:09:38;16.50;99.90
32965;DHT22;19317;48.226;11.686;2023-07-29T04:14:29;16.70;99.90
32965;DHT22;19317;48.226;11.686;2023-07-29T04:19:19;16.70;99.90
32965;DHT22;19317;48.226;11.686;2023-07-29T04:24:10;16.80;99.90
32965;DHT22;19317;48.226;11.686;2023-07-29T04:29:00;16.80;99.90
32965;DHT22;19317;48.226;11.686;2023-07-29T04:33:51;16.90;99.90
32965;DHT22;19317;48.226;11.686;2023-07-29T04:38:41;17.00;99.90
32965;DHT22;19317;48.226;11.686;2023-07-29T04:43:32;17.00;99.90
32965;DHT22;19317;48.226;11.686;2023-07-29T04:48:22;16.80;99.90
32965;DHT22;19317;48.226;11.686;2023-07-29T04:53:13;16.90;99.90
32965;DHT22;19317;48.226;11.686;2023-07-29T04:58:03;16.80;99.90
32965;DHT22;19317;48.226;11.686;2023-07-29T05:02:54;16.80;99.90
32965;DHT22;19317;48.226;11.686;2023-07-29T05:07:44;16.80;99.90
32965;DHT22;19317;48.226;11.686;2023-07-29T05:12:35;16.90;99.90
32965;DHT22;19317;48.226;11.686;2023-07-29T05:17:25;17.10;99.90
32965;DHT22;19317;48.226;11.686;2023-07-29T05:22:16;17.20;99.90
32965;DHT22;19317;48.226;11.686;2023-07-29T05:27:06;17.40;99.90
32965;DHT22;19317;48.226;11.686;2023-07-29T05:31:56;17.50;99.90
32965;DHT22;19317;48.226;11.686;2023-07-29T05:36:47;17.60;99.90
32965;DHT22;19317;48.226;11.686;2023-07-29T05:41:37;17.60;99.90
32965;DHT22;19317;48.226;11.686;2023-07-29T05:46:28;17.80;99.90
32965;DHT22;19317;48.226;11.686;2023-07-29T05:51:18;18.00;99.90
32965;DHT22;19317;48.226;11.686;2023-07-29T05:56:09;18.10;99.90
32965;DHT22;19317;48.226;11.686;2023-07-29T06:00:59;18.10;99.90
32965;DHT22;19317;48.226;11.686;2023-07-29T06:05:50;18.20;99.90
32965;DHT22;19317;48.226;11.686;2023-07-29T06:10:40;18.20;99.90
32965;DHT22;19317;48.226;11.686;2023-07-29T06:15:30;18.20;99.90
32965;DHT22;19317;48.226;11.686;2023-07-29T06:20:21;18.20;99.90
32965;DHT22;19317;48.226;11.686;2023-07-29T06:25:11;18.30;99.90
32965;DHT22;19317;48.226;11.686;2023-07-29T06:30:02;18.40;99.90
32965;DHT22;19317;48.226;11.686;2023-07-29T06:34:52;18.40;99.90
32965;DHT22;19317;48.226;11.686;2023-07-29T06:39:43;18.60;99.90
32965;DHT22;19317;48.226;11.686;2023-07-29T06:44:33;18.70;99.90
32965;DHT22;19317;48.226;11.686;2023-07-29T06:49:24;18.80;99.90
32965;DHT22;19317;48.226;11.686;2023-07-29T06:54:16;18.70;99.90
32965;DHT22;19317;48.226;11.686;2023-07-29T06:59:07;18.80;99.90
32965;DHT22;19317;48.226;11.686;2023-07-29T07:03:57;18.80;99.90
32965;DHT22;19317;48.226;11.686;2023-07-29T07:08:48;18.70;99.90
32965;DHT22;19317;48.226;11.686;2023-07-29T07:13:38;18.40;99.90
32965;DHT22;19317;48.226;11.686;2023-07-29T07:18:28;18.20;99.90
32965;DHT22;19317;48.226;11.686;2023-07-29T07:23:19;18.10;99.90
32965;DHT22;19317;48.226;11.686;2023-07-29T07:28:10;18.10;99.90
32965;DHT22;19317;48.226;11.686;2023-07-29T07:33:01;18.20;99.90
32965;DHT22;19317;48.226;11.686;2023-07-29T07:37:51;18.10;99.90
32965;DHT22;19317;48.226;11.686;2023-07-29T07:42:42;18.10;99.90
32965;DHT22;19317;48.226;11.686;2023-07-29T07:47:32;18.20;99.90
32965;DHT22;19317;48.226;11.686;2023-07-29T07:52:23;18.20;99.90
32965;DHT22;19317;48.226;11.686;2023-07-29T07:57:13;18.30;99.90
32965;DHT22;19317;48.226;11.686;2023-07-29T08:02:03;18.30;99.90
32965;DHT22;19317;48.226;11.686;2023-07-29T08:06:54;18.40;99.90
32965;DHT22;19317;48.226;11.686;2023-07-29T08:11:44;18.50;99.90
32965;DHT22;19317;48.226;11.686;2023-07-29T08:16:35;18.60;99.90
32965;DHT22;19317;48.226;11.686;2023-07-29T08:21:27;18.70;99.90
32965;DHT22;19317;48.226;11.686;2023-07-29T08:26:17;18.80;99.90
32965;DHT22;19317;48.226;11.686;2023-07-29T08:31:08;18.80;99.90
32965;DHT22;19317;48.226;11.686;2023-07-29T08:35:58;18.90;99.90
32965;DHT22;19317;48.226;11.686;2023-07-29T08:40:57;18.90;99.90
32965;DHT22;19317;48.226;11.686;2023-07-29T08:45:49;19.10;99.90
32965;DHT22;19317;48.226;11.686;2023-07-29T08:50:41;19.20;99.90
32965;DHT22;19317;48.226;11.686;2023-07-29T08:55:33;19.30;99.90
32965;DHT22;19317;48.226;11.686;2023-07-29T09:00:24;19.30;99.90
32965;DHT22;19317;48.226;11.686;2023-07-29T09:05:16;19.40;99.90
32965;DHT22;19317;48.226;11.686;2023-07-29T09:10:08;19.50;99.90
32965;DHT22;19317;48.226;11.686;2023-07-29T09:14:59;19.60;99.90
32965;DHT22;19317;48.226;11.686;2023-07-29T09:19:50;19.80;99.90
32965;DHT22;19317;48.226;11.686;2023-07-29T09:24:41;20.00;99.90
32965;DHT22;19317;48.226;11.686;2023-07-29T09:29:35;20.40;99.90
32965;DHT22;19317;48.226;11.686;2023-07-29T09:34:26;20.60;99.90
32965;DHT22;19317;48.226;11.686;2023-07-29T09:39:16;20.90;99.90
32965;DHT22;19317;48.226;11.686;2023-07-29T09:44:07;21.10;99.90
32965;DHT22;19317;48.226;11.686;2023-07-29T09:48:57;21.30;99.90
32965;DHT22;19317;48.226;11.686;2023-07-29T09:53:50;21.50;99.90
32965;DHT22;19317;48.226;11.686;2023-07-29T09:58:43;21.80;99.90
32965;DHT22;19317;48.226;11.686;2023-07-29T10:03:34;21.90;99.90
32965;DHT22;19317;48.226;11.686;2023-07-29T10:08:26;22.10;99.90
32965;DHT22;19317;48.226;11.686;2023-07-29T10:13:17;22.20;99.90
32965;DHT22;19317;48.226;11.686;2023-07-29T10:18:07;22.40;99.90
32965;DHT22;19317;48.226;11.686;2023-07-29T10:23:00;22.60;99.90
32965;DHT22;19317;48.226;11.686;2023-07-29T10:27:59;22.90;99.90
32965;DHT22;19317;48.226;11.686;2023-07-29T10:32:52;23.10;99.90
32965;DHT22;19317;48.226;11.686;2023-07-29T10:37:43;23.30;99.90
32965;DHT22;19317;48.226;11.686;2023-07-29T10:42:34;23.70;99.90
32965;DHT22;19317;48.226;11.686;2023-07-29T10:47:27;23.70;99.90
32965;DHT22;19317;48.226;11.686;2023-07-29T10:52:37;23.70;99.90
32965;DHT22;19317;48.226;11.686;2023-07-29T10:57:34;24.00;99.90
32965;DHT22;19317;48.226;11.686;2023-07-29T11:02:33;24.00;99.90
32965;DHT22;19317;48.226;11.686;2023-07-29T11:07:26;24.10;99.90
32965;DHT22;19317;48.226;11.686;2023-07-29T11:17:26;23.20;99.90
32965;DHT22;19317;48.226;11.686;2023-07-29T11:22:18;21.50;99.90
32965;DHT22;19317;48.226;11.686;2023-07-29T11:27:11;21.10;99.90
32965;DHT22;19317;48.226;11.686;2023-07-29T11:32:02;20.70;99.90
32965;DHT22;19317;48.226;11.686;2023-07-29T11:36:53;21.00;99.90
32965;DHT22;19317;48.226;11.686;2023-07-29T11:41:43;21.30;99.90
32965;DHT22;19317;48.226;11.686;2023-07-29T11:46:34;21.40;99.90
32965;DHT22;19317;48.226;11.686;2023-07-29T11:51:25;21.80;99.90
32965;DHT22;19317;48.226;11.686;2023-07-29T11:56:16;22.20;99.90
32965;DHT22;19317;48.226;11.686;2023-07-29T12:01:07;22.80;99.90
32965;DHT22;19317;48.226;11.686;2023-07-29T12:05:58;22.90;99.90
32965;DHT22;19317;48.226;11.686;2023-07-29T12:10:49;23.20;99.90
32965;DHT22;19317;48.226;11.686;2023-07-29T12:15:39;23.50;99.90
32965;DHT22;19317;48.226;11.686;2023-07-29T12:20:30;23.40;99.90
32965;DHT22;19317;48.226;11.686;2023-07-29T12:25:21;23.60;99.90
32965;DHT22;19317;48.226;11.686;2023-07-29T12:30:11;23.60;99.90
32965;DHT22;19317;48.226;11.686;2023-07-29T12:35:09;24.10;99.90
32965;DHT22;19317;48.226;11.686;2023-07-29T12:40:00;24.10;99.90
32965;DHT22;19317;48.226;11.686;2023-07-29T12:44:50;23.90;99.90
32965;DHT22;19317;48.226;11.686;2023-07-29T12:49:41;23.20;99.90
32965;DHT22;19317;48.226;11.686;2023-07-29T12:54:31;22.70;99.90
32965;DHT22;19317;48.226;11.686;2023-07-29T12:59:22;22.30;99.90
32965;DHT22;19317;48.226;11.686;2023-07-29T13:04:12;22.10;99.90
32965;DHT22;19317;48.226;11.686;2023-07-29T13:09:03;22.20;99.90
32965;DHT22;19317;48.226;11.686;2023-07-29T13:13:53;22.00;99.90
32965;DHT22;19317;48.226;11.686;2023-07-29T13:18:44;22.30;99.90
32965;DHT22;19317;48.226;11.686;2023-07-29T13:23:34;22.10;99.90
32965;DHT22;19317;48.226;11.686;2023-07-29T13:28:25;21.50;99.90
32965;DHT22;19317;48.226;11.686;2023-07-29T13:33:15;21.60;99.90
32965;DHT22;19317;48.226;11.686;2023-07-29T13:38:06;21.60;99.90
32965;DHT22;19317;48.226;11.686;2023-07-29T13:42:56;21.60;99.90
32965;DHT22;19317;48.226;11.686;2023-07-29T13:47:48;21.60;99.90
32965;DHT22;19317;48.226;11.686;2023-07-29T13:52:39;21.40;99.90
32965;DHT22;19317;48.226;11.686;2023-07-29T13:57:29;21.30;99.90
32965;DHT22;19317;48.226;11.686;2023-07-29T14:02:20;21.60;99.90
32965;DHT22;19317;48.226;11.686;2023-07-29T14:07:10;21.80;99.90
32965;DHT22;19317;48.226;11.686;2023-07-29T14:12:01;21.70;99.90
32965;DHT22;19317;48.226;11.686;2023-07-29T14:16:51;21.80;99.90
32965;DHT22;19317;48.226;11.686;2023-07-29T14:21:41;21.40;99.90
32965;DHT22;19317;48.226;11.686;2023-07-29T14:26:32;21.60;99.90
32965;DHT22;19317;48.226;11.686;2023-07-29T14:31:22;21.60;99.90
32965;DHT22;19317;48.226;11.686;2023-07-29T14:36:13;21.40;99.90
32965;DHT22;19317;48.226;11.686;2023-07-29T14:41:04;21.20;99.90
32965;DHT22;19317;48.226;11.686;2023-07-29T14:45:54;21.10;99.90
32965;DHT22;19317;48.226;11.686;2023-07-29T14:50:45;21.10;99.90
32965;DHT22;19317;48.226;11.686;2023-07-29T14:55:36;21.00;99.90
32965;DHT22;19317;48.226;11.686;2023-07-29T15:00:26;20.80;99.90
32965;DHT22;19317;48.226;11.686;2023-07-29T15:05:17;19.90;99.90
32965;DHT22;19317;48.226;11.686;2023-07-29T15:10:07;20.60;99.90
32965;DHT22;19317;48.226;11.686;2023-07-29T15:14:58;20.60;99.90
32965;DHT22;19317;48.226;11.686;2023-07-29T15:19:48;20.70;99.90
32965;DHT22;19317;48.226;11.686;2023-07-29T15:24:39;20.70;99.90
32965;DHT22;19317;48.226;11.686;2023-07-29T15:29:29;20.60;99.90
32965;DHT22;19317;48.226;11.686;2023-07-29T15:34:20;20.60;99.90
32965;DHT22;19317;48.226;11.686;2023-07-29T15:39:10;20.30;99.90
32965;DHT22;19317;48.226;11.686;2023-07-29T15:44:01;20.20;99.90
32965;DHT22;19317;48.226;11.686;2023-07-29T15:48:51;20.30;99.90
32965;DHT22;19317;48.226;11.686;2023-07-29T15:53:42;20.10;99.90
32965;DHT22;19317;48.226;11.686;2023-07-29T15:58:32;19.90;99.90
32965;DHT22;19317;48.226;11.686;2023-07-29T16:03:23;19.80;99.90
32965;DHT22;19317;48.226;11.686;2023-07-29T16:08:13;19.40;99.90
32965;DHT22;19317;48.226;11.686;2023-07-29T16:13:03;19.70;99.90
32965;DHT22;19317;48.226;11.686;2023-07-29T16:17:54;19.60;99.90
32965;DHT22;19317;48.226;11.686;2023-07-29T16:22:44;19.50;99.90
32965;DHT22;19317;48.226;11.686;2023-07-29T16:27:35;19.70;99.90
32965;DHT22;19317;48.226;11.686;2023-07-29T16:32:25;19.90;99.90
32965;DHT22;19317;48.226;11.686;2023-07-29T16:37:16;19.90;99.90
32965;DHT22;19317;48.226;11.686;2023-07-29T16:42:06;19.70;99.90
32965;DHT22;19317;48.226;11.686;2023-07-29T16:46:57;19.80;99.90
32965;DHT22;19317;48.226;11.686;2023-07-29T16:51:48;19.80;99.90
32965;DHT22;19317;48.226;11.686;2023-07-29T16:56:39;19.80;99.90
32965;DHT22;19317;48.226;11.686;2023-07-29T17:01:29;19.80;99.90
32965;DHT22;19317;48.226;11.686;2023-07-29T17:06:20;19.90;99.90
32965;DHT22;19317;48.226;11.686;2023-07-29T17:11:10;19.90;99.90
32965;DHT22;19317;48.226;11.686;2023-07-29T17:16:00;20.20;99.90
32965;DHT22;19317;48.226;11.686;2023-07-29T17:20:51;20.20;99.90
32965;DHT22;19317;48.226;11.686;2023-07-29T17:25:41;20.20;99.90
32965;DHT22;19317;48.226;11.686;2023-07-29T17:30:32;19.90;99.90
32965;DHT22;19317;48.226;11.686;2023-07-29T17:35:22;20.00;99.90
32965;DHT22;19317;48.226;11.686;2023-07-29T17:40:13;20.10;99.90
32965;DHT22;19317;48.226;11.686;2023-07-29T17:45:05;19.90;99.90
32965;DHT22;19317;48.226;11.686;2023-07-29T17:49:55;20.00;99.90
32965;DHT22;19317;48.226;11.686;2023-07-29T17:54:46;20.00;99.90
32965;DHT22;19317;48.226;11.686;2023-07-29T17:59:36;20.00;99.90
32965;DHT22;19317;48.226;11.686;2023-07-29T18:04:26;20.00;99.90
32965;DHT22;19317;48.226;11.686;2023-07-29T18:09:17;19.90;99.90
32965;DHT22;19317;48.226;11.686;2023-07-29T18:14:08;19.80;99.90
32965;DHT22;19317;48.226;11.686;2023-07-29T18:18:58;19.70;99.90
32965;DHT22;19317;48.226;11.686;2023-07-29T18:23:49;19.70;99.90
32965;DHT22;19317;48.226;11.686;2023-07-29T18:28:39;19.90;99.90
32965;DHT22;19317;48.226;11.686;2023-07-29T18:33:30;19.90;99.90
32965;DHT22;19317;48.226;11.686;2023-07-29T18:38:20;20.00;99.90
32965;DHT22;19317;48.226;11.686;2023-07-29T18:43:11;19.90;99.90
32965;DHT22;19317;48.226;11.686;2023-07-29T18:48:01;19.90;99.90
32965;DHT22;19317;48.226;11.686;2023-07-29T18:52:52;19.70;99.90
32965;DHT22;19317;48.226;11.686;2023-07-29T18:57:42;19.70;99.90
32965;DHT22;19317;48.226;11.686;2023-07-29T19:02:33;19.70;99.90
32965;DHT22;19317;48.226;11.686;2023-07-29T19:07:23;19.70;99.90
32965;DHT22;19317;48.226;11.686;2023-07-29T19:12:14;19.60;99.90
32965;DHT22;19317;48.226;11.686;2023-07-29T19:17:04;19.50;99.90
32965;DHT22;19317;48.226;11.686;2023-07-29T19:21:55;19.50;99.90
32965;DHT22;19317;48.226;11.686;2023-07-29T19:26:45;19.50;99.90
32965;DHT22;19317;48.226;11.686;2023-07-29T19:31:36;19.40;99.90
32965;DHT22;19317;48.226;11.686;2023-07-29T19:36:26;19.50;99.90
32965;DHT22;19317;48.226;11.686;2023-07-29T19:41:17;19.50;99.90
32965;DHT22;19317;48.226;11.686;2023-07-29T19:46:07;19.50;99.90
32965;DHT22;19317;48.226;11.686;2023-07-29T19:50:58;19.50;99.90
32965;DHT22;19317;48.226;11.686;2023-07-29T19:55:48;19.50;99.90
32965;DHT22;19317;48.226;11.686;2023-07-29T20:00:39;19.50;99.90
32965;DHT22;19317;48.226;11.686;2023-07-29T20:05:29;19.50;99.90
32965;DHT22;19317;48.226;11.686;2023-07-29T20:10:20;19.50;99.90
32965;DHT22;19317;48.226;11.686;2023-07-29T20:15:11;19.50;99.90
32965;DHT22;19317;48.226;11.686;2023-07-29T20:20:01;19.50;99.90
32965;DHT22;19317;48.226;11.686;2023-07-29T20:24:52;19.50;99.90
32965;DHT22;19317;48.226;11.686;2023-07-29T20:29:42;19.50;99.90
32965;DHT22;19317;48.226;11.686;2023-07-29T20:34:33;19.50;99.90
32965;DHT22;19317;48.226;11.686;2023-07-29T20:39:23;19.50;99.90
32965;DHT22;19317;48.226;11.686;2023-07-29T20:44:14;19.50;99.90
32965;DHT22;19317;48.226;11.686;2023-07-29T20:49:04;19.40;99.90
32965;DHT22;19317;48.226;11.686;2023-07-29T20:53:55;19.50;99.90
32965;DHT22;19317;48.226;11.686;2023-07-29T20:58:45;19.40;99.90
32965;DHT22;19317;48.226;11.686;2023-07-29T21:03:36;19.40;99.90
32965;DHT22;19317;48.226;11.686;2023-07-29T21:08:27;19.50;99.90
32965;DHT22;19317;48.226;11.686;2023-07-29T21:13:18;19.50;99.90
32965;DHT22;19317;48.226;11.686;2023-07-29T21:18:08;19.40;99.90
32965;DHT22;19317;48.226;11.686;2023-07-29T21:22:59;19.40;99.90
32965;DHT22;19317;48.226;11.686;2023-07-29T21:27:49;19.50;99.90
32965;DHT22;19317;48.226;11.686;2023-07-29T21:32:39;19.50;99.90
32965;DHT22;19317;48.226;11.686;2023-07-29T21:37:30;19.40;99.90
32965;DHT22;19317;48.226;11.686;2023-07-29T21:42:20;19.40;99.90
32965;DHT22;19317;48.226;11.686;2023-07-29T21:47:11;19.40;99.90
32965;DHT22;19317;48.226;11.686;2023-07-29T21:52:01;19.50;99.90
32965;DHT22;19317;48.226;11.686;2023-07-29T21:56:52;19.40;99.90
32965;DHT22;19317;48.226;11.686;2023-07-29T22:01:42;19.50;99.90
32965;DHT22;19317;48.226;11.686;2023-07-29T22:06:33;19.40;99.90
32965;DHT22;19317;48.226;11.686;2023-07-29T22:11:23;19.50;99.90
32965;DHT22;19317;48.226;11.686;2023-07-29T22:16:13;19.40;99.90
32965;DHT22;19317;48.226;11.686;2023-07-29T22:21:04;19.40;99.90
32965;DHT22;19317;48.226;11.686;2023-07-29T22:26:02;19.30;99.90
32965;DHT22;19317;48.226;11.686;2023-07-29T22:30:53;19.40;99.90
32965;DHT22;19317;48.226;11.686;2023-07-29T22:35:43;19.30;99.90
32965;DHT22;19317;48.226;11.686;2023-07-29T22:40:34;19.30;99.90
32965;DHT22;19317;48.226;11.686;2023-07-29T22:45:24;19.40;99.90
32965;DHT22;19317;48.226;11.686;2023-07-29T22:50:14;19.40;99.90
32965;DHT22;19317;48.226;11.686;2023-07-29T22:55:05;19.40;99.90
32965;DHT22;19317;48.226;11.686;2023-07-29T22:59:56;19.30;99.90
32965;DHT22;19317;48.226;11.686;2023-07-29T23:04:46;19.30;99.90
32965;DHT22;19317;48.226;11.686;2023-07-29T23:09:37;19.50;99.90
32965;DHT22;19317;48.226;11.686;2023-07-29T23:14:27;19.50;99.90
32965;DHT22;19317;48.226;11.686;2023-07-29T23:19:18;19.60;99.90
32965;DHT22;19317;48.226;11.686;2023-07-29T23:24:08;19.60;99.90
32965;DHT22;19317;48.226;11.686;2023-07-29T23:28:58;19.50;99.90
32965;DHT22;19317;48.226;11.686;2023-07-29T23:33:49;19.40;99.90
32965;DHT22;19317;48.226;11.686;2023-07-29T23:38:39;19.40;99.90
32965;DHT22;19317;48.226;11.686;2023-07-29T23:43:30;19.40;99.90
32965;DHT22;19317;48.226;11.686;2023-07-29T23:48:20;19.50;99.90
32965;DHT22;19317;48.226;11.686;2023-07-29T23:53:11;19.30;99.90
32965;DHT22;19317;48.226;11.686;2023-07-29T23:58:01;19.30;99.90
